Time;durP1;ratioP1;P1;durP2;ratioP2;P2;SDS_P1;SDS_P2;PMS_P1;PMS_P2;Temp;Humidity;BMP_temperature;BMP_pressure;BME280_temperature;BME280_humidity;BME280_pressure;Samples;Min_cycle;Max_cycle;Signal;HPM_P1;HPM_P2
2021/09/07 00:01:26;;;;;;;9.75;6.68;;;;;;;22.55;54.58;99162.91;5073602;28;20028;-49
2021/09/07 00:03:52;;;;;;;10.63;5.03;;;;;;;22.48;55.10;99173.06;5091771;28;20020;-49
2021/09/07 00:06:18;;;;;;;10.57;5.53;;;;;;;22.46;55.11;99161.84;5091677;28;20032;-49
2021/09/07 00:08:44;;;;;;;7.00;4.53;;;;;;;22.47;54.93;99163.44;5091679;28;20073;-49
2021/09/07 00:11:10;;;;;;;7.28;5.18;;;;;;;22.48;55.03;99171.19;5091554;28;20051;-49
2021/09/07 00:13:36;;;;;;;9.93;5.10;;;;;;;22.46;54.95;99170.66;5091892;28;20063;-48
2021/09/07 00:16:02;;;;;;;19.95;18.20;;;;;;;22.49;54.92;99170.13;5091513;28;20161;-49
2021/09/07 00:18:28;;;;;;;20.08;17.40;;;;;;;22.45;55.25;99160.22;5091829;28;20012;-49
2021/09/07 00:20:55;;;;;;;14.57;8.95;;;;;;;22.26;55.41;99162.63;5091590;28;20532;-49
2021/09/07 00:23:20;;;;;;;12.88;7.85;;;;;;;22.11;56.16;99172.19;5091320;28;20119;-49
2021/09/07 00:25:46;;;;;;;11.40;6.80;;;;;;;22.14;55.99;99170.84;5091512;28;20115;-49
2021/09/07 00:28:12;;;;;;;11.18;7.97;;;;;;;22.11;56.65;99177.53;5091500;28;20498;-49
2021/09/07 00:30:38;;;;;;;10.85;7.30;;;;;;;22.16;56.62;99178.63;5091443;28;20021;-49
2021/09/07 00:33:04;;;;;;;8.13;5.72;;;;;;;22.13;56.78;99183.44;5091463;28;20031;-49
2021/09/07 00:35:31;;;;;;;11.15;6.45;;;;;;;22.09;56.83;99178.84;5091318;28;20111;-48
2021/09/07 00:37:57;;;;;;;6.93;5.95;;;;;;;22.04;57.07;99179.66;5091379;28;20028;-48
2021/09/07 00:40:23;;;;;;;7.68;6.78;;;;;;;22.01;56.96;99171.34;5091336;28;20100;-49
2021/09/07 00:42:48;;;;;;;7.55;5.00;;;;;;;22.04;56.96;99168.16;5092214;28;20517;-49
2021/09/07 00:45:14;;;;;;;14.50;9.23;;;;;;;22.04;57.32;99168.97;5076864;28;20020;-48
2021/09/07 00:47:41;;;;;;;20.48;18.25;;;;;;;22.05;56.92;99170.56;5095092;28;20098;-48
2021/09/07 00:50:07;;;;;;;12.90;6.55;;;;;;;22.00;57.81;99170.56;5076762;28;20016;-49
2021/09/07 00:52:35;;;;;;;14.13;7.05;;;;;;;21.94;57.49;99163.59;5094972;28;20031;-48
2021/09/07 00:55:01;;;;;;;14.18;8.52;;;;;;;21.92;57.35;99165.72;5094841;28;20021;-49
2021/09/07 00:57:29;;;;;;;11.60;7.85;;;;;;;21.87;57.54;99163.84;5094912;28;20031;-49
2021/09/07 00:59:55;;;;;;;7.97;5.50;;;;;;;21.83;57.63;99160.09;5094857;28;20501;-48
2021/09/07 01:02:21;;;;;;;9.77;7.10;;;;;;;21.88;57.53;99161.97;5094791;28;20109;-49
2021/09/07 01:04:47;;;;;;;12.05;6.70;;;;;;;21.76;57.89;99146.16;5095048;28;20028;-49
2021/09/07 01:07:13;;;;;;;16.13;8.63;;;;;;;21.74;57.88;99153.63;5094621;28;20078;-49
2021/09/07 01:09:40;;;;;;;10.32;5.82;;;;;;;21.69;58.18;99146.41;5094649;28;20024;-49
2021/09/07 01:12:07;;;;;;;9.38;5.25;;;;;;;21.72;57.91;99151.22;5094488;28;20043;-49
2021/09/07 01:14:37;;;;;;;10.02;5.10;;;;;;;21.70;58.03;99147.22;5094991;28;20028;-49
2021/09/07 01:17:09;;;;;;;22.55;20.00;;;;;;;21.57;58.15;99148.50;5094982;28;20516;-49
2021/09/07 01:19:34;;;;;;;11.18;8.13;;;;;;;21.39;58.80;99162.25;5076337;28;20118;-49
2021/09/07 01:22:00;;;;;;;13.57;7.95;;;;;;;21.38;58.83;99152.66;5095695;28;20540;-49
2021/09/07 01:24:29;;;;;;;44.13;9.88;;;;;;;21.35;58.67;99141.44;5096943;28;20504;-49
2021/09/07 01:26:55;;;;;;;21.33;12.35;;;;;;;21.27;58.92;99147.28;5094506;28;20450;-48
2021/09/07 01:29:21;;;;;;;18.10;16.42;;;;;;;21.30;58.99;99146.75;5094295;28;20016;-49
2021/09/07 01:31:47;;;;;;;21.48;18.90;;;;;;;21.28;58.84;99150.75;5094177;28;20474;-49
2021/09/07 01:34:23;;;;;;;46.17;29.13;;;;;;;21.28;59.59;99146.19;5094244;28;20020;-49
2021/09/07 01:36:49;;;;;;;32.85;24.13;;;;;;;21.22;59.07;99149.91;5094016;28;20393;-49
2021/09/07 01:39:16;;;;;;;72.95;66.45;;;;;;;21.16;59.17;99145.59;5094098;28;20024;-49
2021/09/07 01:41:42;;;;;;;73.25;58.72;;;;;;;21.14;59.14;99148.50;5076048;28;20019;-48
2021/09/07 01:44:08;;;;;;;32.42;29.25;;;;;;;20.97;59.00;99149.75;5094036;28;20146;-48
2021/09/07 01:46:34;;;;;;;34.22;28.15;;;;;;;20.82;59.81;99151.25;5075742;28;20115;-49
2021/09/07 01:49:00;;;;;;;27.58;24.77;;;;;;;20.80;60.10;99149.91;5075725;28;20025;-49
2021/09/07 01:51:25;;;;;;;14.68;13.23;;;;;;;20.81;60.25;99149.66;5075650;28;20031;-49
2021/09/07 01:53:51;;;;;;;147.00;133.77;;;;;;;20.75;60.38;99162.16;5075268;28;20058;-48
2021/09/07 01:56:17;;;;;;;133.63;120.82;;;;;;;20.70;60.54;99142.63;5093208;28;20020;-48
2021/09/07 01:58:42;;;;;;;68.22;60.40;;;;;;;20.64;60.52;99136.44;5093720;28;20077;-48
2021/09/07 02:01:08;;;;;;;29.83;26.88;;;;;;;20.75;60.63;99145.34;5093648;28;20028;-49
2021/09/07 02:03:37;;;;;;;129.82;119.18;;;;;;;20.79;60.49;99141.09;5075429;28;20102;-49
2021/09/07 02:06:02;;;;;;;45.10;31.48;;;;;;;20.86;60.06;99141.66;5093524;28;20035;-49
2021/09/07 02:08:28;;;;;;;122.82;111.93;;;;;;;20.90;59.70;99137.44;5075324;28;20020;-49
2021/09/07 02:10:54;;;;;;;126.13;114.40;;;;;;;20.90;59.58;99133.97;5093362;28;20205;-48
2021/09/07 02:13:20;;;;;;;83.05;75.38;;;;;;;20.87;59.48;99137.16;5093452;28;20020;-49
2021/09/07 02:15:45;;;;;;;55.97;44.67;;;;;;;20.78;59.75;99138.69;5093268;28;20056;-49
2021/09/07 02:18:11;;;;;;;53.13;47.67;;;;;;;20.76;59.94;99141.59;5075163;28;20058;-49
2021/09/07 02:20:37;;;;;;;171.77;155.75;;;;;;;20.70;61.08;99135.41;5093267;28;20024;-49
2021/09/07 02:23:06;;;;;;;66.88;61.08;;;;;;;20.77;60.83;99142.44;5092899;28;20118;-48
2021/09/07 02:25:33;;;;;;;187.82;172.40;;;;;;;20.79;60.43;99135.78;5093153;28;20034;-48
2021/09/07 02:27:59;;;;;;;80.55;74.00;;;;;;;20.85;60.25;99134.75;5093124;28;20493;-48
2021/09/07 02:30:25;;;;;;;27.85;25.25;;;;;;;20.88;59.87;99138.75;5093141;28;20020;-49
2021/09/07 02:32:51;;;;;;;33.50;24.50;;;;;;;20.67;60.17;99127.16;5093047;28;20040;-49
2021/09/07 02:35:17;;;;;;;12.27;8.65;;;;;;;20.46;60.60;99124.28;5092926;28;20099;-48
2021/09/07 02:37:43;;;;;;;12.88;11.15;;;;;;;20.29;61.07;99124.41;5092991;28;20027;-48
2021/09/07 02:40:09;;;;;;;76.22;70.10;;;;;;;20.15;61.66;99121.34;5092915;28;20028;-49
2021/09/07 02:42:35;;;;;;;81.05;73.88;;;;;;;20.03;62.27;99118.03;5074618;28;20024;-49
2021/09/07 02:45:01;;;;;;;20.48;18.58;;;;;;;19.89;62.63;99124.81;5092860;28;20547;-49
2021/09/07 02:47:26;;;;;;;39.60;36.10;;;;;;;19.88;63.02;99118.69;5092785;28;20122;-49
2021/09/07 02:49:52;;;;;;;24.05;21.45;;;;;;;19.88;63.06;99115.19;5092728;28;20541;-48
2021/09/07 02:52:17;;;;;;;77.55;70.95;;;;;;;19.98;63.87;99119.84;5074479;28;20084;-49
2021/09/07 02:54:43;;;;;;;39.88;17.45;;;;;;;20.18;63.15;99120.03;5074306;28;20122;-49
2021/09/07 02:57:09;;;;;;;50.25;23.60;;;;;;;20.28;62.55;99128.13;5092615;28;20115;-49
2021/09/07 02:59:35;;;;;;;42.80;38.65;;;;;;;20.27;62.55;99123.06;5092534;28;20107;-49
2021/09/07 03:02:00;;;;;;;24.95;22.58;;;;;;;20.21;62.53;99116.06;5092486;28;20023;-49
2021/09/07 03:04:26;;;;;;;23.58;17.30;;;;;;;20.19;62.73;99126.97;5074316;28;20131;-49
2021/09/07 03:06:52;;;;;;;86.20;72.15;;;;;;;20.23;62.73;99121.97;5092351;28;20024;-49
2021/09/07 03:09:17;;;;;;;98.20;78.53;;;;;;;20.28;62.73;99122.81;5092411;28;20024;-49
2021/09/07 03:11:43;;;;;;;89.97;81.13;;;;;;;20.46;62.24;99112.81;5074094;28;20092;-49
2021/09/07 03:14:09;;;;;;;94.65;86.55;;;;;;;20.53;62.06;99119.53;5092329;28;20028;-49
2021/09/07 03:16:34;;;;;;;122.90;112.28;;;;;;;20.53;62.00;99108.06;5073970;28;20054;-49
2021/09/07 03:19:02;;;;;;;83.13;75.55;;;;;;;20.59;61.87;99103.63;5092298;28;20024;-49
2021/09/07 03:21:27;;;;;;;130.38;119.15;;;;;;;20.60;61.65;99108.69;5092467;28;20088;-49
2021/09/07 03:23:53;;;;;;;181.82;165.80;;;;;;;20.51;61.85;99103.00;5092011;28;20077;-49
2021/09/07 03:26:22;;;;;;;97.72;88.78;;;;;;;20.42;62.32;99101.03;5092150;28;20024;-49
2021/09/07 03:28:47;;;;;;;106.25;96.90;;;;;;;20.47;62.32;99101.09;5073895;28;20031;-48
2021/09/07 03:31:13;;;;;;;67.70;61.15;;;;;;;20.44;62.26;99093.59;5092037;28;20028;-49
2021/09/07 03:33:38;;;;;;;100.97;91.70;;;;;;;20.33;62.47;99098.06;5073852;28;20024;-49
2021/09/07 03:36:04;;;;;;;162.60;147.95;;;;;;;20.20;62.95;99101.91;5091925;28;20016;-48
2021/09/07 03:38:31;;;;;;;133.15;119.93;;;;;;;20.15;63.25;99097.34;5073807;28;20020;-49
2021/09/07 03:40:57;;;;;;;54.85;49.47;;;;;;;20.24;63.11;99102.22;5091975;28;20019;-49
2021/09/07 03:43:23;;;;;;;66.40;60.03;;;;;;;20.39;62.89;99097.03;5091969;28;20031;-49
2021/09/07 03:45:48;;;;;;;162.88;146.93;;;;;;;20.45;63.03;99103.22;5073640;28;20496;-49
2021/09/07 03:48:14;;;;;;;44.53;39.95;;;;;;;20.64;62.24;99108.97;5091923;28;20028;-49
2021/09/07 03:50:40;;;;;;;92.60;83.68;;;;;;;20.72;62.07;99106.63;5073678;28;20074;-49
2021/09/07 03:53:06;;;;;;;84.68;76.03;;;;;;;20.72;61.84;99103.16;5091819;28;20028;-49
2021/09/07 03:55:31;;;;;;;38.00;32.33;;;;;;;20.53;62.49;99100.06;5091746;28;20024;-49
2021/09/07 03:57:57;;;;;;;87.43;73.68;;;;;;;20.40;62.98;99106.63;5091836;28;20020;-49
2021/09/07 04:00:23;;;;;;;36.40;30.50;;;;;;;20.50;62.96;99104.06;5091737;28;20119;-48
2021/09/07 04:02:49;;;;;;;116.10;104.25;;;;;;;20.60;62.71;99099.88;5090403;28;20024;-49
2021/09/07 04:05:14;;;;;;;36.63;27.92;;;;;;;20.77;62.14;99103.22;5091764;28;20501;-49
2021/09/07 04:07:40;;;;;;;45.72;41.05;;;;;;;20.83;61.76;99096.84;5073551;28;20031;-49
2021/09/07 04:10:06;;;;;;;34.30;25.13;;;;;;;21.04;61.44;99091.63;5073465;28;20017;-48
2021/09/07 04:12:32;;;;;;;19.75;12.50;;;;;;;21.27;60.50;99091.22;5091717;28;20024;-49
2021/09/07 04:14:58;;;;;;;51.35;35.40;;;;;;;21.37;60.04;99093.13;5091545;28;20020;-48
2021/09/07 04:17:24;;;;;;;44.47;39.78;;;;;;;21.46;59.88;99096.13;5091823;28;20020;-49
2021/09/07 04:19:49;;;;;;;43.35;38.88;;;;;;;21.36;59.55;99102.19;5077395;28;20520;-49
2021/09/07 04:22:15;;;;;;;21.40;17.23;;;;;;;21.05;60.31;99098.59;5095347;28;20028;-50
2021/09/07 04:24:40;;;;;;;82.18;74.50;;;;;;;20.71;60.99;99098.91;5095662;28;20111;-49
2021/09/07 04:27:06;;;;;;;70.93;63.60;;;;;;;20.54;61.93;99104.34;5095466;28;20448;-48
2021/09/07 04:29:32;;;;;;;27.98;23.48;;;;;;;20.41;62.12;99100.25;5095484;28;20016;-49
2021/09/07 04:31:57;;;;;;;24.65;21.77;;;;;;;20.28;62.85;99103.31;5077198;28;20020;-49
2021/09/07 04:34:23;;;;;;;98.43;89.68;;;;;;;20.39;62.92;99101.56;5095370;28;20460;-49
2021/09/07 04:36:49;;;;;;;46.72;42.05;;;;;;;20.59;62.40;99098.28;5095285;28;20107;-49
2021/09/07 04:39:15;;;;;;;105.70;96.22;;;;;;;20.75;61.92;99102.66;5095325;28;20393;-49
2021/09/07 04:41:41;;;;;;;33.67;30.15;;;;;;;20.78;61.63;99099.47;5093891;28;20024;-48
2021/09/07 04:44:07;;;;;;;21.90;19.17;;;;;;;20.57;61.88;99095.03;5077001;28;20025;-49
2021/09/07 04:46:32;;;;;;;36.85;33.60;;;;;;;20.21;62.97;99106.22;5076867;28;20081;-48
2021/09/07 04:48:58;;;;;;;43.78;40.05;;;;;;;20.04;63.78;99100.19;5095138;28;20103;-48
2021/09/07 04:51:24;;;;;;;156.80;144.25;;;;;;;20.02;63.84;99105.78;5076886;28;20028;-49
2021/09/07 04:53:51;;;;;;;51.40;46.72;;;;;;;20.04;63.71;99108.16;5095027;28;20492;-49
2021/09/07 04:56:18;;;;;;;44.75;39.83;;;;;;;19.96;63.68;99109.44;5094850;28;20024;-48
2021/09/07 04:58:44;;;;;;;88.22;80.15;;;;;;;19.88;64.08;99118.69;5094893;28;20051;-49
2021/09/07 05:01:10;;;;;;;187.73;170.88;;;;;;;19.91;64.35;99117.38;5094864;28;20024;-49
2021/09/07 05:03:36;;;;;;;70.60;63.60;;;;;;;19.87;64.13;99110.94;5094751;28;20032;-49
2021/09/07 05:06:02;;;;;;;65.30;58.88;;;;;;;19.87;64.08;99114.41;5094760;28;20030;-49
2021/09/07 05:08:28;;;;;;;73.05;66.30;;;;;;;19.89;64.26;99114.16;5094697;28;20389;-48
2021/09/07 05:10:53;;;;;;;47.00;42.92;;;;;;;19.81;64.33;99119.94;5076490;28;20031;-49
2021/09/07 05:13:19;;;;;;;110.43;101.72;;;;;;;19.73;64.75;99129.97;5076391;28;20405;-48
2021/09/07 05:15:45;;;;;;;77.85;70.05;;;;;;;19.82;64.31;99119.69;5094498;28;20089;-49
2021/09/07 05:18:10;;;;;;;143.88;130.02;;;;;;;20.00;63.79;99125.72;5094511;28;20486;-49
2021/09/07 05:20:36;;;;;;;202.88;185.45;;;;;;;20.14;63.38;99133.06;5094426;28;20039;-49
2021/09/07 05:23:02;;;;;;;69.63;63.15;;;;;;;20.28;63.07;99140.66;5094246;28;20040;-49
2021/09/07 05:25:30;;;;;;;232.70;211.27;;;;;;;20.42;62.43;99146.38;5076142;28;20463;-49
2021/09/07 05:27:56;;;;;;;103.72;88.60;;;;;;;20.75;61.60;99153.34;5094230;28;20028;-49
2021/09/07 05:30:22;;;;;;;85.47;76.70;;;;;;;21.22;60.28;99152.56;5074841;28;20052;-49
2021/09/07 05:32:48;;;;;;;72.30;46.95;;;;;;;21.79;58.91;99142.94;5094315;28;20059;-49
2021/09/07 05:35:14;;;;;;;74.13;49.03;;;;;;;22.42;57.95;99147.41;5094136;28;20020;-49
2021/09/07 05:37:40;;;;;;;38.63;34.55;;;;;;;23.05;55.31;99147.91;5076060;28;20590;-49
2021/09/07 05:40:12;;;;;;;64.53;58.72;;;;;;;23.41;53.53;99153.16;5094154;28;20444;-49
2021/09/07 05:42:43;;;;;;;125.75;114.35;;;;;;;23.79;52.32;99148.22;5094151;28;20123;-49
2021/09/07 05:45:13;;;;;;;73.30;66.13;;;;;;;24.09;51.83;99155.28;5093980;28;20059;-49
2021/09/07 05:47:39;;;;;;;53.05;48.10;;;;;;;24.42;50.68;99152.09;5093987;28;20038;-49
2021/09/07 05:50:07;;;;;;;26.08;23.48;;;;;;;24.75;49.87;99155.91;5075797;28;20097;-49
2021/09/07 05:52:33;;;;;;;28.38;24.17;;;;;;;25.09;49.05;99153.16;5093924;28;20024;-49
2021/09/07 05:54:59;;;;;;;39.28;35.42;;;;;;;25.44;47.93;99142.31;5093761;28;20486;-49
2021/09/07 05:57:24;;;;;;;68.35;60.38;;;;;;;25.56;47.73;99148.06;5075580;28;20028;-49
2021/09/07 05:59:51;;;;;;;70.47;64.43;;;;;;;25.68;46.84;99140.38;5075579;28;20024;-49
2021/09/07 06:02:17;;;;;;;23.35;21.05;;;;;;;25.55;47.05;99135.72;5093590;28;20085;-49
2021/09/07 06:04:42;;;;;;;24.88;17.65;;;;;;;25.67;49.10;99141.47;5075592;28;20016;-50
2021/09/07 06:07:11;;;;;;;21.35;19.20;;;;;;;25.69;46.93;99144.66;5093811;28;20031;-49
2021/09/07 06:09:36;;;;;;;59.78;55.22;;;;;;;25.39;47.32;99147.72;5093483;28;20047;-49
2021/09/07 06:12:02;;;;;;;47.10;43.22;;;;;;;25.08;47.96;99156.91;5093496;28;20024;-49
2021/09/07 06:14:28;;;;;;;44.88;40.45;;;;;;;24.72;48.94;99154.56;5092049;28;20028;-48
2021/09/07 06:16:57;;;;;;;44.72;39.67;;;;;;;24.66;49.55;99150.31;5093414;28;20028;-49
2021/09/07 06:19:23;;;;;;;307.55;280.33;;;;;;;24.94;49.68;99158.66;5093351;28;20016;-49
2021/09/07 06:21:48;;;;;;;219.13;199.13;;;;;;;25.52;47.97;99149.75;5093277;28;20084;-49
2021/09/07 06:24:14;;;;;;;365.65;327.17;;;;;;;26.16;46.94;99155.63;5093107;28;20123;-49
2021/09/07 06:26:40;;;;;;;284.50;255.98;;;;;;;27.01;45.17;99155.63;5093165;28;20101;-49
2021/09/07 06:29:06;;;;;;;131.65;117.97;;;;;;;27.67;43.17;99156.25;5093373;28;20047;-49
2021/09/07 06:31:31;;;;;;;140.82;127.18;;;;;;;27.92;43.16;99157.59;5074856;28;20073;-49
2021/09/07 06:33:57;;;;;;;393.95;351.50;;;;;;;28.06;43.05;99147.56;5093035;28;20401;-49
2021/09/07 06:36:22;;;;;;;263.13;236.75;;;;;;;28.47;41.99;99156.59;5092896;28;20013;-49
2021/09/07 06:38:48;;;;;;;143.18;128.98;;;;;;;28.56;42.42;99154.00;5074719;28;20024;-49
2021/09/07 06:41:14;;;;;;;69.65;62.97;;;;;;;28.44;41.51;99155.31;5092580;28;20031;-49
2021/09/07 06:43:41;;;;;;;41.65;34.42;;;;;;;28.26;42.10;99154.38;5092859;28;20168;-49
2021/09/07 06:46:07;;;;;;;28.85;25.95;;;;;;;28.85;41.69;99143.50;5092860;28;20401;-50
2021/09/07 06:48:33;;;;;;;32.30;27.98;;;;;;;29.71;39.05;99149.56;5074601;28;20024;-49
2021/09/07 06:50:59;;;;;;;25.45;18.80;;;;;;;30.25;37.91;99152.00;5092724;28;20513;-49
2021/09/07 06:53:25;;;;;;;29.20;20.42;;;;;;;30.63;37.72;99151.31;5092732;28;20024;-49
2021/09/07 06:55:51;;;;;;;712.55;533.22;;;;;;;31.10;36.64;99156.78;5092559;28;20017;-49
2021/09/07 06:58:16;;;;;;;241.18;184.23;;;;;;;31.23;36.26;99158.47;5092567;28;20030;-49
2021/09/07 07:00:42;;;;;;;283.52;208.63;;;;;;;31.19;36.07;99159.44;5092591;28;20390;-49
2021/09/07 07:03:08;;;;;;;298.05;229.60;;;;;;;31.13;36.25;99158.84;5074247;28;20035;-49
2021/09/07 07:05:34;;;;;;;195.70;140.73;;;;;;;30.97;36.65;99152.34;5092397;28;20026;-49
2021/09/07 07:08:01;;;;;;;36.75;23.92;;;;;;;31.37;36.01;99152.81;5092424;28;20047;-49
2021/09/07 07:10:27;;;;;;;20.98;12.65;;;;;;;31.68;35.21;99156.34;5092326;28;20494;-49
2021/09/07 07:12:53;;;;;;;21.27;14.95;;;;;;;31.62;36.36;99155.75;5074118;28;20451;-50
2021/09/07 07:15:19;;;;;;;16.77;10.25;;;;;;;31.95;35.14;99161.22;5092169;28;20020;-49
2021/09/07 07:17:44;;;;;;;15.23;10.45;;;;;;;32.37;34.04;99161.22;5093199;28;20023;-49
2021/09/07 07:20:11;;;;;;;20.85;18.58;;;;;;;32.32;34.26;99169.59;5074082;28;20097;-49
2021/09/07 07:22:38;;;;;;;9.50;8.50;;;;;;;32.20;34.26;99166.84;5073736;28;20052;-49
2021/09/07 07:25:05;;;;;;;15.68;6.70;;;;;;;32.13;34.58;99161.13;5092122;28;20032;-49
2021/09/07 07:27:31;;;;;;;8.07;7.25;;;;;;;32.32;34.04;99160.66;5073914;28;20024;-49
2021/09/07 07:29:56;;;;;;;14.38;8.52;;;;;;;32.54;33.91;99165.72;5092134;28;20028;-49
2021/09/07 07:32:22;;;;;;;14.45;7.60;;;;;;;32.88;32.98;99161.06;5092521;28;20024;-49
2021/09/07 07:34:48;;;;;;;11.35;7.95;;;;;;;32.93;33.03;99162.78;5091993;28;20058;-49
2021/09/07 07:37:13;;;;;;;6.93;5.72;;;;;;;33.19;32.46;99151.59;5092045;28;20024;-49
2021/09/07 07:39:39;;;;;;;8.15;5.68;;;;;;;33.32;31.83;99155.88;5092007;28;20501;-50
2021/09/07 07:42:05;;;;;;;10.38;5.30;;;;;;;33.57;32.28;99162.13;5092163;28;20107;-49
2021/09/07 07:44:31;;;;;;;8.30;4.85;;;;;;;33.96;31.48;99162.50;5091851;28;20024;-49
2021/09/07 07:46:57;;;;;;;26.00;19.40;;;;;;;34.20;31.10;99163.59;5091942;28;20443;-49
2021/09/07 07:49:22;;;;;;;90.70;81.32;;;;;;;34.45;30.64;99158.03;5092050;28;20035;-49
2021/09/07 07:51:49;;;;;;;374.48;342.75;;;;;;;34.92;30.45;99157.31;5091580;28;20059;-49
2021/09/07 07:54:14;;;;;;;51.13;46.58;;;;;;;35.57;28.89;99157.69;5073228;28;20161;-50
2021/09/07 07:56:40;;;;;;;59.33;53.90;;;;;;;35.86;28.90;99155.63;5073531;28;20123;-49
2021/09/07 07:59:06;;;;;;;42.83;38.35;;;;;;;36.15;28.47;99154.28;5091805;28;20035;-49
2021/09/07 08:01:32;;;;;;;20.73;18.45;;;;;;;36.84;27.35;99152.81;5091649;28;20027;-50
2021/09/07 08:03:58;;;;;;;104.57;95.38;;;;;;;37.80;26.87;99147.22;5091642;28;20398;-50
2021/09/07 08:06:25;;;;;;;26.20;19.20;;;;;;;38.02;26.50;99151.03;5091677;28;20052;-52
2021/09/07 08:08:50;;;;;;;18.95;16.35;;;;;;;37.80;26.56;99147.22;5073994;28;20024;-52
2021/09/07 08:11:17;;;;;;;11.15;9.95;;;;;;;37.72;26.13;99141.66;5073446;28;20162;-52
2021/09/07 08:13:43;;;;;;;30.50;23.50;;;;;;;37.52;26.36;99151.91;5073656;28;20020;-52
2021/09/07 08:16:09;;;;;;;138.18;124.72;;;;;;;37.45;26.74;99153.75;5091768;28;20439;-52
2021/09/07 08:18:35;;;;;;;102.88;92.95;;;;;;;37.29;26.57;99153.91;5091572;28;20095;-52
2021/09/07 08:21:01;;;;;;;134.13;119.63;;;;;;;36.91;27.10;99163.88;5073447;28;20105;-52
2021/09/07 08:23:26;;;;;;;84.95;76.88;;;;;;;36.76;28.13;99157.34;5091278;28;20533;-52
2021/09/07 08:25:52;;;;;;;66.85;60.55;;;;;;;37.43;26.95;99158.81;5091536;28;20028;-52
2021/09/07 08:28:18;;;;;;;33.22;29.67;;;;;;;38.21;26.27;99156.34;5091493;28;20033;-52
2021/09/07 08:30:44;;;;;;;9.98;8.80;;;;;;;38.83;24.60;99152.28;5091405;28;20095;-52
2021/09/07 08:33:12;;;;;;;15.32;11.60;;;;;;;38.33;25.82;99158.81;5073370;28;20028;-52
2021/09/07 08:35:38;;;;;;;10.55;6.32;;;;;;;38.26;26.01;99163.47;5091253;28;20027;-53
2021/09/07 08:38:04;;;;;;;23.48;16.27;;;;;;;38.26;25.92;99164.25;5091456;28;20032;-52
2021/09/07 08:40:30;;;;;;;10.73;6.82;;;;;;;38.56;25.68;99155.97;5091414;28;20032;-51
2021/09/07 08:42:56;;;;;;;12.82;7.30;;;;;;;38.65;25.09;99158.38;5091296;28;20036;-52
2021/09/07 08:45:22;;;;;;;7.97;5.32;;;;;;;38.94;24.34;99161.38;5091335;28;20024;-52
2021/09/07 08:47:48;;;;;;;14.68;7.38;;;;;;;39.10;24.59;99159.19;5091378;28;20036;-52
2021/09/07 08:50:14;;;;;;;11.52;5.68;;;;;;;38.72;24.45;99163.16;5091266;28;20065;-52
2021/09/07 08:52:41;;;;;;;11.80;7.57;;;;;;;37.63;26.01;99160.31;5091240;28;20506;-52
2021/09/07 08:55:07;;;;;;;9.55;4.90;;;;;;;37.02;26.24;99159.34;5091188;28;20370;-52
2021/09/07 08:57:36;;;;;;;16.48;7.82;;;;;;;37.05;27.65;99163.31;5073063;28;20443;-52
2021/09/07 09:00:06;;;;;;;21.42;6.63;;;;;;;37.28;26.39;99155.88;5091135;28;20558;-52
2021/09/07 09:02:39;;;;;;;12.48;6.28;;;;;;;37.36;26.65;99162.25;5091212;28;20039;-53
2021/09/07 09:05:06;;;;;;;;;;;;;;;37.91;25.57;99161.84;5094398;28;20039;-51
2021/09/07 09:07:32;;;;;;;13.98;5.63;;;;;;;37.89;26.00;99151.28;5076793;28;20296;-52
2021/09/07 09:09:59;;;;;;;7.50;4.95;;;;;;;37.12;26.38;99163.44;5076585;28;20016;-52
2021/09/07 09:12:35;;;;;;;7.43;6.13;;;;;;;36.46;27.17;99160.69;5094607;28;20030;-53
2021/09/07 09:15:08;;;;;;;20.65;17.55;;;;;;;36.63;27.72;99153.22;5094824;28;20093;-52
2021/09/07 09:17:34;;;;;;;7.32;5.80;;;;;;;37.11;26.73;99150.91;5094674;28;20489;-52
2021/09/07 09:20:16;;;;;;;7.38;3.42;;;;;;;37.72;25.92;99149.88;5094613;28;20046;-52
2021/09/07 09:22:51;;;;;;;6.85;3.55;;;;;;;37.08;26.32;99144.19;5094377;28;20059;-52
2021/09/07 09:25:19;;;;;;;9.02;3.72;;;;;;;36.33;27.10;99151.88;5094470;28;20028;-52
2021/09/07 09:27:48;;;;;;;7.00;4.32;;;;;;;36.40;27.20;99148.50;5094439;28;20032;-52
2021/09/07 09:30:15;;;;;;;6.47;3.65;;;;;;;36.36;27.08;99156.66;5076203;28;20016;-52
2021/09/07 09:32:50;;;;;;;9.43;5.15;;;;;;;36.79;26.84;99149.22;5076184;28;20027;-52
2021/09/07 09:35:17;;;;;;;7.82;4.65;;;;;;;36.75;26.73;99158.53;5094167;28;20027;-52
2021/09/07 09:37:56;;;;;;;10.10;7.00;;;;;;;37.77;26.41;99151.47;5094280;28;20486;-52
2021/09/07 09:40:22;;;;;;;7.63;4.28;;;;;;;39.15;24.59;99150.56;5094162;28;20065;-52
2021/09/07 09:42:52;;;;;;;9.00;4.60;;;;;;;39.57;23.32;99148.50;5075988;28;20040;-52
2021/09/07 09:45:26;;;;;;;12.35;7.75;;;;;;;40.11;22.99;99155.03;5094015;28;20494;-52
2021/09/07 09:47:52;;;;;;;6.95;3.83;;;;;;;40.40;22.68;99152.38;5092981;28;20030;-53
2021/09/07 09:50:19;;;;;;;17.70;13.93;;;;;;;40.13;22.94;99149.94;5094207;28;20497;-52
2021/09/07 09:52:46;;;;;;;30.50;18.50;;;;;;;40.19;23.29;99149.56;5093903;28;20038;-53
2021/09/07 09:55:14;;;;;;;18.77;16.00;;;;;;;40.57;22.33;99139.84;5093755;28;20103;-52
2021/09/07 09:57:41;;;;;;;35.58;32.17;;;;;;;41.03;21.63;99141.03;5093794;28;20028;-52
2021/09/07 10:00:17;;;;;;;13.88;8.65;;;;;;;41.52;21.29;99142.16;5093578;28;20047;-52
2021/09/07 10:02:45;;;;;;;6.75;5.43;;;;;;;41.98;21.16;99130.16;5075591;28;20077;-52
2021/09/07 10:05:12;;;;;;;9.23;7.40;;;;;;;41.94;20.59;99134.91;5093618;28;20024;-53
2021/09/07 10:07:38;;;;;;;43.90;39.67;;;;;;;41.64;21.23;99118.91;5093635;28;20016;-52
2021/09/07 10:10:05;;;;;;;12.20;7.57;;;;;;;41.77;20.96;99131.03;5093613;28;20016;-52
2021/09/07 10:12:58;;;;;;;15.43;9.60;;;;;;;41.67;21.24;99123.59;5075387;28;20036;-53
2021/09/07 10:15:42;;;;;;;6.85;3.90;;;;;;;41.84;21.18;99125.50;5092777;28;20020;-52
2021/09/07 10:21:19;;;;;;;4.55;3.22;;;;;;;42.46;20.08;99107.44;5093984;28;20439;-53
2021/09/07 10:26:40;;;;;;;8.60;4.28;;;;;;;41.46;21.56;99113.44;5093279;28;20398;-52
2021/09/07 10:29:18;;;;;;;7.47;5.20;;;;;;;41.03;22.52;99108.78;5074855;28;20121;-52
2021/09/07 10:31:53;;;;;;;19.23;11.77;;;;;;;41.44;22.19;99105.56;5093048;28;20016;-52
2021/09/07 10:34:25;;;;;;;4.30;3.90;;;;;;;41.18;22.13;99106.81;5074852;28;20482;-53
2021/09/07 10:36:58;;;;;;;4.60;3.08;;;;;;;40.93;22.74;99104.88;5093243;28;20016;-52
2021/09/07 10:39:43;;;;;;;5.57;3.38;;;;;;;40.69;22.85;99103.69;5092964;28;20032;-51
2021/09/07 10:42:12;;;;;;;12.55;4.78;;;;;;;40.51;23.12;99100.13;5093195;28;20406;-52
2021/09/07 10:44:42;;;;;;;6.03;3.80;;;;;;;40.84;23.33;99095.44;5092875;28;20055;-52
2021/09/07 10:47:12;;;;;;;6.32;3.80;;;;;;;40.97;22.54;99095.81;5092809;28;20099;-52
2021/09/07 10:49:45;;;;;;;5.78;3.08;;;;;;;40.95;22.69;99090.69;5074614;28;20020;-52
2021/09/07 10:52:29;;;;;;;5.68;3.00;;;;;;;40.30;23.01;99082.41;5092960;28;20024;-53
2021/09/07 10:55:07;;;;;;;5.03;3.28;;;;;;;40.11;23.70;99088.28;5092922;28;20035;-52
2021/09/07 10:57:41;;;;;;;5.30;4.03;;;;;;;40.17;24.03;99081.22;5092574;28;20028;-52
2021/09/07 11:00:14;;;;;;;10.45;6.00;;;;;;;40.65;23.54;99080.88;5092573;28;20040;-52
2021/09/07 11:02:42;;;;;;;138.95;112.20;;;;;;;40.65;23.58;99082.81;5092917;28;20525;-53
2021/09/07 11:05:17;;;;;;;120.25;108.65;;;;;;;40.36;22.81;99085.56;5092538;28;20115;-52
2021/09/07 11:07:45;;;;;;;59.97;53.92;;;;;;;39.83;23.84;99083.47;5092561;28;20599;-51
2021/09/07 11:10:14;;;;;;;53.88;48.17;;;;;;;39.36;24.29;99080.47;5074186;28;20489;-52
2021/09/07 11:12:48;;;;;;;32.80;24.25;;;;;;;39.00;24.73;99072.06;5074189;28;20032;-52
2021/09/07 11:15:14;;;;;;;18.42;14.73;;;;;;;38.76;24.57;99076.97;5092366;28;20125;-52
2021/09/07 11:17:52;;;;;;;18.33;15.32;;;;;;;38.63;25.08;99072.16;5092361;28;20461;-52
2021/09/07 11:20:19;;;;;;;8.00;5.05;;;;;;;38.93;24.81;99070.00;5092132;28;20024;-52
2021/09/07 11:22:45;;;;;;;7.32;5.35;;;;;;;39.02;24.68;99074.41;5091929;28;20165;-52
2021/09/07 11:25:14;;;;;;;9.73;5.43;;;;;;;39.07;24.59;99066.59;5074025;28;20024;-51